Elaine, AR (72333)

11:43 AM CST on December 27, 2014 (GMT -0600)
Fletcher | Change Station
CLOSE
Current Station
Airport
Location: Clarksdale Fletcher Field Air,
Elevation: 174 ft
Nearby Weather Stations

Elev 174 ft 34.30 °N, 90.51 °W | Updated 8 minutes ago

Overcast
Overcast
55 °F
Feels Like 55 °F
N
0
Wind Variable Wind from North

Today
High -- | Low -- °F
--% Chance of Precip.
Yesterday
High -- | Low -- °F
Precip. -- in
7:08 AM 5:00 PM
Waxing Crescent, 38% visible
Pressure 30.12 in
Visibility 1.8 miles
Clouds Mostly Cloudy 500 ft
Mostly Cloudy 1000 ft
Overcast 1700 ft
Dew Point 55 °F
Humidity 100%
Rainfall 0.00 in
Snow Depth Not available.
UV 1 out of 12
Pollen .10 out of 12
Air Quality Not available.
Flu Activity Not available.
METAR KCKM 271735Z AUTO 00000KT 1 3/4SM BKN005 BKN010 OVC017 13/13 A3012 RMK AO1

More Conditions Fewer Conditions

Pressure 30.12 in
Visibility 1.8 miles
Clouds Mostly Cloudy 500 ft
Mostly Cloudy 1000 ft
Overcast 1700 ft
Dew Point 55 °F
Humidity 100%
Rainfall 0.00 in
Snow Depth Not available.
UV 1 out of 12
Pollen .10 out of 12
Air Quality Not available.
Flu Activity Not available.
METAR KCKM 271735Z AUTO 00000KT 1 3/4SM BKN005 BKN010 OVC017 13/13 A3012 RMK AO1

More Conditions Fewer Conditions

10-Day Weather Forecast

Almanac

Astronomy

Dec. 27, 2014 Rise Set
Actual Time
Civil Twilight
Nautical Twilight
Astronomical Twilight
Moon
Length of Visible Light
Length of Day
Tomorrow will be .
, % of the Moon is Illuminated

Today's Extremes

State Highs State Lows

Community

WunderPhotos

Upload Photos

1,780,974 photos uploaded!

WunderBlogs® & News

Nearby

Air Quality

  Air Quality AQ Index Pollutant
Not available.

Snow Depth

Station Depth Elevation

Earthquake Activity

City Distance Mag. Time & Date
Minimum magnitude displayed is 2.5.

Coastal Water Temperatures

Place Temperature

Nearby Weather Stations